Time;durP1;ratioP1;P1;durP2;ratioP2;P2;SDS_P1;SDS_P2;PMS_P1;PMS_P2;Temp;Humidity;BMP_temperature;BMP_pressure;BME280_temperature;BME280_humidity;BME280_pressure;Samples;Min_cycle;Max_cycle;Signal;HPM_P1;HPM_P2
2021/10/20 00:02:25;;;;;;;3.72;3.00;;;14.20;99.90;;;;;;6185359;23;20025;-69
2021/10/20 00:04:52;;;;;;;3.42;3.10;;;14.30;99.90;;;;;;6185290;23;20028;-71
2021/10/20 00:07:18;;;;;;;4.38;3.40;;;14.20;99.90;;;;;;6185467;23;20017;-69
2021/10/20 00:09:45;;;;;;;3.72;2.95;;;14.20;99.90;;;;;;6184878;23;20021;-69
2021/10/20 00:12:11;;;;;;;4.70;3.42;;;14.20;99.90;;;;;;6185379;23;20394;-69
2021/10/20 00:14:38;;;;;;;4.03;3.58;;;14.10;99.90;;;;;;6184701;23;20020;-69
2021/10/20 00:17:05;;;;;;;4.28;3.20;;;14.10;99.90;;;;;;6185328;23;20017;-72
2021/10/20 00:19:33;;;;;;;5.80;3.28;;;13.90;99.90;;;;;;6185247;23;20017;-71
2021/10/20 00:22:00;;;;;;;3.72;3.00;;;13.90;99.90;;;;;;6185223;23;20395;-72
2021/10/20 00:24:26;;;;;;;5.90;3.58;;;13.90;99.90;;;;;;6184606;23;20044;-71
2021/10/20 00:26:53;;;;;;;3.45;3.08;;;13.90;99.90;;;;;;6185262;23;20021;-71
2021/10/20 00:29:19;;;;;;;3.85;3.10;;;13.80;99.90;;;;;;6184992;23;20463;-72
2021/10/20 00:31:46;;;;;;;4.45;2.92;;;13.80;99.90;;;;;;6185574;23;20021;-71
2021/10/20 00:34:13;;;;;;;5.60;4.03;;;13.70;99.90;;;;;;6184550;23;20021;-69
2021/10/20 00:36:41;;;;;;;4.70;3.28;;;13.60;99.90;;;;;;6184701;23;20518;-70
2021/10/20 00:39:07;;;;;;;3.70;3.30;;;13.70;99.90;;;;;;6185030;23;20079;-69
2021/10/20 00:41:34;;;;;;;4.05;3.65;;;13.60;99.90;;;;;;6184930;23;20081;-70
2021/10/20 00:44:00;;;;;;;3.55;3.25;;;13.70;99.90;;;;;;6184618;23;20021;-72
2021/10/20 00:46:29;;;;;;;4.82;3.63;;;13.60;99.90;;;;;;6185412;23;20021;-73
2021/10/20 00:48:56;;;;;;;5.45;3.83;;;13.60;99.90;;;;;;6184911;23;20517;-72
2021/10/20 00:51:25;;;;;;;4.93;3.65;;;13.70;99.90;;;;;;6184677;23;20467;-72
2021/10/20 00:53:55;;;;;;;4.40;4.00;;;13.70;99.90;;;;;;6184294;23;20021;-72
2021/10/20 00:56:23;;;;;;;5.05;3.70;;;13.60;99.90;;;;;;6184917;23;20056;-72
2021/10/20 00:58:50;;;;;;;5.85;4.53;;;13.60;99.90;;;;;;6184877;23;20071;-71
2021/10/20 01:01:17;;;;;;;6.15;4.55;;;13.60;99.90;;;;;;6185092;23;20064;-71
2021/10/20 01:03:44;;;;;;;5.50;4.15;;;13.60;99.90;;;;;;6183053;23;20017;-70
2021/10/20 01:06:11;;;;;;;5.20;3.90;;;13.50;99.90;;;;;;6184782;23;20060;-70
2021/10/20 01:08:38;;;;;;;6.00;3.78;;;13.60;99.90;;;;;;6184213;23;20100;-70
2021/10/20 01:11:06;;;;;;;5.00;4.07;;;13.60;99.90;;;;;;6185176;23;20087;-70
2021/10/20 01:13:33;;;;;;;6.70;3.72;;;13.60;99.90;;;;;;6184257;23;20021;-70
2021/10/20 01:16:02;;;;;;;6.32;4.38;;;13.60;99.90;;;;;;6184431;23;20463;-70
2021/10/20 01:18:29;;;;;;;6.20;4.72;;;13.60;99.90;;;;;;6184637;23;20020;-70
2021/10/20 01:20:59;;;;;;;5.32;4.35;;;13.60;99.90;;;;;;6184542;23;20075;-69
2021/10/20 01:23:28;;;;;;;7.15;5.28;;;13.60;99.90;;;;;;6183950;23;20021;-69
2021/10/20 01:25:55;;;;;;;5.15;4.60;;;13.60;99.90;;;;;;6184659;23;20017;-70
2021/10/20 01:28:21;;;;;;;6.82;5.25;;;13.60;99.90;;;;;;6184356;23;20079;-72
2021/10/20 01:30:48;;;;;;;7.05;5.00;;;13.70;99.90;;;;;;6184407;23;20020;-72
2021/10/20 01:33:14;;;;;;;7.22;5.40;;;13.70;99.90;;;;;;6183916;23;20029;-70
2021/10/20 01:35:41;;;;;;;8.73;5.75;;;13.70;99.90;;;;;;6184502;23;20025;-73
2021/10/20 01:38:08;;;;;;;9.40;7.20;;;13.70;99.90;;;;;;6184243;23;20021;-72
2021/10/20 01:40:36;;;;;;;8.98;6.40;;;13.70;99.90;;;;;;6184549;23;20072;-71
2021/10/20 01:43:02;;;;;;;7.65;6.10;;;13.60;99.90;;;;;;6184414;23;20021;-72
2021/10/20 01:45:30;;;;;;;5.68;5.00;;;13.60;99.90;;;;;;6184276;23;20021;-69
2021/10/20 01:47:56;;;;;;;10.23;6.47;;;13.60;99.90;;;;;;6184473;23;20076;-71
2021/10/20 01:50:23;;;;;;;8.50;6.43;;;13.60;99.90;;;;;;6184308;23;20075;-71
2021/10/20 01:52:50;;;;;;;6.20;5.55;;;13.60;99.90;;;;;;6184323;23;20324;-72
2021/10/20 01:55:17;;;;;;;7.00;6.28;;;13.60;99.90;;;;;;6183475;23;20079;-70
2021/10/20 01:57:46;;;;;;;8.30;6.43;;;13.60;99.90;;;;;;6184442;23;20075;-71
2021/10/20 02:00:14;;;;;;;8.07;6.50;;;13.60;99.90;;;;;;6184360;23;20073;-70
2021/10/20 02:02:41;;;;;;;8.10;5.40;;;13.60;99.90;;;;;;6184297;23;20021;-70
2021/10/20 02:05:09;;;;;;;8.63;6.38;;;13.60;99.90;;;;;;6183357;23;20399;-70
2021/10/20 02:07:35;;;;;;;7.53;6.57;;;13.60;99.90;;;;;;6184165;23;20333;-70
2021/10/20 02:10:02;;;;;;;10.30;6.30;;;13.60;99.90;;;;;;6183941;23;20024;-72
2021/10/20 02:12:29;;;;;;;7.25;5.85;;;13.60;99.90;;;;;;6184157;23;20021;-72
2021/10/20 02:14:57;;;;;;;8.48;6.45;;;13.70;99.90;;;;;;6183577;23;20048;-72
2021/10/20 02:17:23;;;;;;;7.95;6.53;;;13.60;99.90;;;;;;6184212;23;20068;-72
2021/10/20 02:19:50;;;;;;;8.02;5.80;;;13.70;99.90;;;;;;6184178;23;20072;-72
2021/10/20 02:22:16;;;;;;;9.90;5.97;;;13.60;99.90;;;;;;6184251;23;20080;-72
2021/10/20 02:24:43;;;;;;;10.20;5.80;;;13.60;99.90;;;;;;6183584;23;20025;-72
2021/10/20 02:27:10;;;;;;;8.63;6.63;;;13.60;99.90;;;;;;6183823;23;20459;-72
2021/10/20 02:29:36;;;;;;;8.02;6.53;;;13.60;99.90;;;;;;6184117;23;20017;-72
2021/10/20 02:32:05;;;;;;;7.30;5.30;;;13.60;99.90;;;;;;6184096;23;20025;-72
2021/10/20 02:34:31;;;;;;;10.40;6.03;;;13.50;99.90;;;;;;6183713;23;20399;-72
2021/10/20 02:36:58;;;;;;;8.25;5.38;;;13.50;99.90;;;;;;6183833;23;20534;-72
2021/10/20 02:39:25;;;;;;;7.80;6.15;;;13.50;99.90;;;;;;6184123;23;20020;-72
2021/10/20 02:41:51;;;;;;;10.40;5.72;;;13.50;99.90;;;;;;6183172;23;20479;-72
2021/10/20 02:44:18;;;;;;;8.73;7.05;;;13.50;99.90;;;;;;6183543;23;20068;-72
2021/10/20 02:46:45;;;;;;;11.75;6.00;;;13.50;99.90;;;;;;6184035;23;20021;-72
2021/10/20 02:49:13;;;;;;;9.65;6.55;;;13.50;99.90;;;;;;6183929;23;20372;-72
2021/10/20 02:51:39;;;;;;;8.23;5.93;;;13.50;99.90;;;;;;6184023;23;20025;-72
2021/10/20 02:54:06;;;;;;;8.18;5.85;;;13.50;99.90;;;;;;6183324;23;20071;-70
2021/10/20 02:56:32;;;;;;;8.73;6.10;;;13.50;99.90;;;;;;6184043;23;20025;-70
2021/10/20 02:58:59;;;;;;;8.73;6.35;;;13.50;99.90;;;;;;6183991;23;20021;-69
2021/10/20 03:01:26;;;;;;;8.68;6.70;;;13.50;99.90;;;;;;6183947;23;20025;-70
2021/10/20 03:03:52;;;;;;;7.65;6.85;;;13.50;99.90;;;;;;6183437;23;20024;-70
2021/10/20 03:06:20;;;;;;;8.05;6.50;;;13.40;99.90;;;;;;6183906;23;20021;-70
2021/10/20 03:08:48;;;;;;;8.13;6.65;;;13.40;99.90;;;;;;6183696;23;20017;-71
2021/10/20 03:11:15;;;;;;;8.02;6.32;;;13.40;99.90;;;;;;6183831;23;20021;-70
2021/10/20 03:13:41;;;;;;;8.57;6.72;;;13.40;99.90;;;;;;6183726;23;20021;-71
2021/10/20 03:16:08;;;;;;;7.65;6.28;;;13.40;99.90;;;;;;6183937;23;20017;-70
2021/10/20 03:18:36;;;;;;;10.15;6.82;;;13.40;99.90;;;;;;6183883;23;20068;-72
2021/10/20 03:21:03;;;;;;;8.40;6.15;;;13.40;99.90;;;;;;6183556;23;20475;-72
2021/10/20 03:23:30;;;;;;;8.13;5.70;;;13.40;99.90;;;;;;6183273;23;20075;-71
2021/10/20 03:25:57;;;;;;;7.70;5.88;;;13.30;99.90;;;;;;6183872;23;20017;-72
2021/10/20 03:28:24;;;;;;;7.25;5.78;;;13.30;99.90;;;;;;6183592;23;20401;-71
2021/10/20 03:30:50;;;;;;;8.20;6.40;;;13.30;99.90;;;;;;6183874;23;20467;-72
2021/10/20 03:33:17;;;;;;;7.10;6.40;;;13.20;99.90;;;;;;6183465;23;20084;-72
2021/10/20 03:35:44;;;;;;;11.48;7.18;;;13.30;99.90;;;;;;6183759;23;20071;-71
2021/10/20 03:38:11;;;;;;;7.70;6.65;;;13.30;99.90;;;;;;6183649;23;20052;-71
2021/10/20 03:40:39;;;;;;;7.80;6.28;;;13.20;99.90;;;;;;6183818;23;20017;-71
2021/10/20 03:43:06;;;;;;;8.88;6.95;;;13.20;99.90;;;;;;6183301;23;20021;-72
2021/10/20 03:45:33;;;;;;;7.18;6.18;;;13.20;99.90;;;;;;6183745;23;20029;-71
2021/10/20 03:48:00;;;;;;;7.70;5.82;;;13.10;99.90;;;;;;6183760;23;20125;-71
2021/10/20 03:50:26;;;;;;;10.98;7.13;;;13.10;99.90;;;;;;6183557;23;20091;-72
2021/10/20 03:52:53;;;;;;;7.28;5.85;;;13.20;99.90;;;;;;6184728;23;20021;-71
2021/10/20 03:55:20;;;;;;;8.45;6.40;;;13.20;99.90;;;;;;6184917;23;20051;-70
2021/10/20 03:57:48;;;;;;;9.20;6.40;;;13.20;99.90;;;;;;6185509;23;20021;-72
2021/10/20 04:00:16;;;;;;;9.05;6.65;;;13.10;99.90;;;;;;6185391;23;20071;-71
2021/10/20 04:02:44;;;;;;;8.05;6.30;;;13.20;99.90;;;;;;6185678;23;20025;-71
2021/10/20 04:05:11;;;;;;;9.75;6.72;;;13.10;99.90;;;;;;6184984;23;20021;-70
2021/10/20 04:07:39;;;;;;;9.57;6.85;;;13.20;99.90;;;;;;6185125;23;20515;-69
2021/10/20 04:10:07;;;;;;;8.70;5.70;;;13.10;99.90;;;;;;6184971;23;20017;-70
2021/10/20 04:12:34;;;;;;;9.45;5.05;;;13.10;99.90;;;;;;6185360;23;20021;-71
2021/10/20 04:15:03;;;;;;;11.38;7.03;;;13.10;99.90;;;;;;6184799;23;20021;-70
2021/10/20 04:17:32;;;;;;;7.25;5.68;;;13.10;99.90;;;;;;6185282;23;20021;-72
2021/10/20 04:19:59;;;;;;;7.15;6.22;;;13.10;99.90;;;;;;6185279;23;20021;-72
2021/10/20 04:22:26;;;;;;;7.50;5.68;;;13.10;99.90;;;;;;6185182;23;20032;-72
2021/10/20 04:24:52;;;;;;;8.10;6.30;;;13.10;99.90;;;;;;6184637;23;20055;-72
2021/10/20 04:27:19;;;;;;;8.93;5.30;;;13.10;99.90;;;;;;6185209;23;20068;-71
2021/10/20 04:29:46;;;;;;;7.88;6.05;;;13.20;99.90;;;;;;6185075;23;20017;-71
2021/10/20 04:32:14;;;;;;;9.18;5.57;;;13.10;99.90;;;;;;6185036;23;20459;-69
2021/10/20 04:34:40;;;;;;;9.23;5.57;;;13.10;99.90;;;;;;6184545;23;20021;-70
2021/10/20 04:37:07;;;;;;;7.95;6.20;;;13.10;99.90;;;;;;6185068;23;20020;-71
2021/10/20 04:39:34;;;;;;;6.40;5.25;;;13.10;99.90;;;;;;6184581;23;20025;-70
2021/10/20 04:42:00;;;;;;;7.80;5.60;;;13.10;99.90;;;;;;6184960;23;20071;-70
2021/10/20 04:44:27;;;;;;;5.90;4.90;;;13.10;99.90;;;;;;6184298;23;20518;-70
2021/10/20 04:46:53;;;;;;;9.65;6.43;;;13.10;99.90;;;;;;6185117;23;20048;-69
2021/10/20 04:49:21;;;;;;;7.35;5.88;;;13.10;99.90;;;;;;6184934;23;20369;-69
2021/10/20 04:51:48;;;;;;;8.05;6.35;;;13.10;99.90;;;;;;6184886;23;20068;-69
2021/10/20 04:54:15;;;;;;;8.45;5.22;;;13.10;99.90;;;;;;6184430;23;20028;-70
2021/10/20 04:56:42;;;;;;;10.10;6.50;;;13.10;99.90;;;;;;6185222;23;20017;-70
2021/10/20 04:59:08;;;;;;;7.43;5.57;;;13.10;99.90;;;;;;6184979;23;20024;-71
2021/10/20 05:01:35;;;;;;;6.32;5.25;;;13.10;99.90;;;;;;6184846;23;20075;-71
2021/10/20 05:04:01;;;;;;;5.95;4.63;;;13.10;99.90;;;;;;6183585;23;20467;-70
2021/10/20 05:06:29;;;;;;;7.72;5.88;;;13.10;99.90;;;;;;6184902;23;20021;-70
2021/10/20 05:08:56;;;;;;;6.00;5.10;;;13.10;99.90;;;;;;6184704;23;20079;-71
2021/10/20 05:11:23;;;;;;;5.68;4.80;;;13.10;99.90;;;;;;6184729;23;20055;-69
2021/10/20 05:13:49;;;;;;;5.15;4.65;;;13.00;99.90;;;;;;6184649;23;20024;-71
2021/10/20 05:16:16;;;;;;;6.07;5.13;;;13.00;99.90;;;;;;6184815;23;20021;-71
2021/10/20 05:18:43;;;;;;;8.63;5.70;;;13.00;99.90;;;;;;6184705;23;20391;-71
2021/10/20 05:21:09;;;;;;;7.05;4.50;;;13.10;99.90;;;;;;6184639;23;20392;-71
2021/10/20 05:23:37;;;;;;;6.13;5.30;;;13.00;99.90;;;;;;6184070;23;20024;-71
2021/10/20 05:26:04;;;;;;;5.97;5.35;;;13.00;99.90;;;;;;6184969;23;20395;-71
2021/10/20 05:28:30;;;;;;;5.85;4.38;;;13.00;99.90;;;;;;6184787;23;20021;-72
2021/10/20 05:30:57;;;;;;;7.95;4.85;;;13.00;99.90;;;;;;6184242;23;20517;-71
2021/10/20 05:33:24;;;;;;;5.07;4.57;;;13.00;99.90;;;;;;6184880;23;20021;-71
2021/10/20 05:35:50;;;;;;;9.55;5.40;;;13.00;99.90;;;;;;6184208;23;20376;-71
2021/10/20 05:38:17;;;;;;;4.57;3.95;;;13.00;99.90;;;;;;6184453;23;20072;-71
2021/10/20 05:40:45;;;;;;;4.90;4.50;;;13.00;99.90;;;;;;6184400;23;20021;-71
2021/10/20 05:43:11;;;;;;;5.55;3.78;;;13.00;99.90;;;;;;6183894;23;20021;-71
2021/10/20 05:45:38;;;;;;;5.72;4.88;;;13.10;99.90;;;;;;6184761;23;20021;-71
2021/10/20 05:48:05;;;;;;;5.22;4.25;;;13.10;99.90;;;;;;6184422;23;20027;-70
2021/10/20 05:50:32;;;;;;;4.82;3.80;;;13.10;99.90;;;;;;6184298;23;20029;-71
2021/10/20 05:52:59;;;;;;;5.45;4.55;;;13.10;99.90;;;;;;6184427;23;20117;-71
2021/10/20 05:55:25;;;;;;;6.47;4.72;;;13.10;99.90;;;;;;6183781;23;20056;-71
2021/10/20 05:57:53;;;;;;;7.25;4.72;;;13.10;99.90;;;;;;6184787;23;20025;-71
2021/10/20 06:00:20;;;;;;;4.53;4.13;;;13.10;99.90;;;;;;6184177;23;20021;-72
2021/10/20 06:02:46;;;;;;;7.03;4.93;;;13.20;99.90;;;;;;6184160;23;20072;-72
2021/10/20 06:05:13;;;;;;;4.35;3.83;;;13.20;99.90;;;;;;6183380;23;20464;-71
2021/10/20 06:07:42;;;;;;;5.35;4.03;;;13.20;99.90;;;;;;6184313;23;20402;-70
2021/10/20 06:10:09;;;;;;;4.50;3.83;;;13.20;99.90;;;;;;6184028;23;20017;-71
2021/10/20 06:12:36;;;;;;;6.60;4.90;;;13.20;99.90;;;;;;6184225;23;20020;-71
2021/10/20 06:15:06;;;;;;;5.50;3.85;;;13.30;99.90;;;;;;6183577;23;20083;-71
2021/10/20 06:17:33;;;;;;;6.28;4.07;;;13.30;99.90;;;;;;6184264;23;20070;-71
2021/10/20 06:19:59;;;;;;;5.35;4.20;;;13.30;99.90;;;;;;6184003;23;20021;-71
2021/10/20 06:22:26;;;;;;;4.85;4.20;;;13.40;99.90;;;;;;6184103;23;20075;-71
2021/10/20 06:24:52;;;;;;;4.47;3.55;;;13.40;99.90;;;;;;6183631;23;20024;-70
2021/10/20 06:27:19;;;;;;;7.72;4.80;;;13.50;99.90;;;;;;6184447;23;20017;-71
2021/10/20 06:29:46;;;;;;;8.10;5.00;;;13.50;99.90;;;;;;6183968;23;20079;-71
2021/10/20 06:32:14;;;;;;;4.93;3.70;;;13.50;99.90;;;;;;6184034;23;20029;-70
2021/10/20 06:34:40;;;;;;;4.22;3.70;;;13.60;99.90;;;;;;6183855;23;20394;-71
2021/10/20 06:37:07;;;;;;;8.57;4.82;;;13.60;99.90;;;;;;6184298;23;20021;-72
2021/10/20 06:39:34;;;;;;;3.25;2.70;;;13.60;99.90;;;;;;6184064;23;20037;-69
2021/10/20 06:42:00;;;;;;;4.53;4.13;;;13.70;99.90;;;;;;6183962;23;20067;-70
2021/10/20 06:44:27;;;;;;;4.68;4.10;;;13.70;99.90;;;;;;6183208;23;20075;-69
2021/10/20 06:46:56;;;;;;;3.75;3.30;;;13.80;99.90;;;;;;6183952;23;20021;-70
2021/10/20 06:49:24;;;;;;;3.65;2.95;;;13.80;99.90;;;;;;6183606;23;20368;-70
2021/10/20 06:51:50;;;;;;;7.63;5.15;;;13.90;99.90;;;;;;6184081;23;20021;-70
2021/10/20 06:54:20;;;;;;;3.47;3.03;;;14.00;99.90;;;;;;6183434;23;20021;-69
2021/10/20 06:56:47;;;;;;;4.00;2.97;;;14.10;99.90;;;;;;6183550;23;20017;-70
2021/10/20 06:59:14;;;;;;;5.03;3.55;;;14.20;99.90;;;;;;6183777;23;20021;-70
2021/10/20 07:01:40;;;;;;;5.32;3.35;;;14.40;99.90;;;;;;6183927;23;20021;-69
2021/10/20 07:04:07;;;;;;;4.47;2.95;;;14.50;99.90;;;;;;6183354;23;20076;-69
2021/10/20 07:06:37;;;;;;;3.90;2.70;;;14.50;99.90;;;;;;6183988;23;20017;-70
2021/10/20 07:09:04;;;;;;;4.95;3.58;;;14.60;99.90;;;;;;6183711;23;20017;-69
2021/10/20 07:11:30;;;;;;;4.20;2.90;;;14.70;99.90;;;;;;6183953;23;20017;-72
2021/10/20 07:13:57;;;;;;;3.38;3.08;;;14.50;99.90;;;;;;6183667;23;20040;-70
2021/10/20 07:16:24;;;;;;;6.00;3.83;;;14.50;99.90;;;;;;6183896;23;20017;-70
2021/10/20 07:18:50;;;;;;;3.83;3.30;;;14.60;99.90;;;;;;6183863;23;20017;-71
2021/10/20 07:21:17;;;;;;;7.82;3.38;;;14.60;99.90;;;;;;6183871;23;20087;-73
2021/10/20 07:23:45;;;;;;;3.00;2.80;;;14.60;99.90;;;;;;6183254;23;20021;-75
2021/10/20 07:26:14;;;;;;;3.35;2.78;;;14.60;99.90;;;;;;6183875;23;20028;-73
2021/10/20 07:28:41;;;;;;;3.05;2.63;;;14.70;99.90;;;;;;6185221;23;20031;-74
2021/10/20 07:31:07;;;;;;;3.38;3.08;;;14.70;99.90;;;;;;6185988;23;20121;-74
2021/10/20 07:33:34;;;;;;;4.00;2.97;;;14.80;99.90;;;;;;6184974;23;20455;-74
2021/10/20 07:36:01;;;;;;;4.32;3.05;;;14.90;99.90;;;;;;6185930;23;20084;-75
2021/10/20 07:38:27;;;;;;;3.75;3.08;;;15.10;99.90;;;;;;6185627;23;20325;-74
2021/10/20 07:40:55;;;;;;;3.63;3.03;;;15.20;99.90;;;;;;6185619;23;20029;-74
2021/10/20 07:43:22;;;;;;;8.07;3.03;;;15.30;99.90;;;;;;6184965;23;20079;-75
2021/10/20 07:45:49;;;;;;;2.78;2.58;;;15.50;99.90;;;;;;6185618;23;20443;-73
2021/10/20 07:48:16;;;;;;;5.10;3.33;;;15.80;99.90;;;;;;6185554;23;20299;-73
2021/10/20 07:50:43;;;;;;;3.40;3.05;;;15.90;99.90;;;;;;6185205;23;20495;-73
2021/10/20 07:53:10;;;;;;;3.42;2.50;;;16.20;99.90;;;;;;6185898;23;20104;-76
2021/10/20 07:55:37;;;;;;;3.72;2.60;;;16.50;99.90;;;;;;6185166;23;20510;-72
2021/10/20 07:58:05;;;;;;;4.40;3.25;;;16.80;99.90;;;;;;6185190;23;20529;-70
2021/10/20 08:00:32;;;;;;;3.95;2.10;;;16.80;99.90;;;;;;6185194;23;20563;-71
2021/10/20 08:03:00;;;;;;;3.10;2.70;;;16.50;99.90;;;;;;6185454;23;20063;-73
2021/10/20 08:05:27;;;;;;;3.75;2.70;;;16.40;99.90;;;;;;6184872;23;20023;-72
2021/10/20 08:07:54;;;;;;;4.85;2.30;;;16.50;99.90;;;;;;6185485;23;20020;-71
2021/10/20 08:10:23;;;;;;;2.30;2.10;;;16.50;99.90;;;;;;6184921;23;20021;-72
2021/10/20 08:12:50;;;;;;;4.20;2.70;;;16.40;99.90;;;;;;6185261;23;20021;-72
2021/10/20 08:15:19;;;;;;;2.78;2.50;;;16.40;99.90;;;;;;6184671;23;20028;-71
2021/10/20 08:17:46;;;;;;;3.58;3.13;;;16.60;99.90;;;;;;6185328;23;20017;-72
2021/10/20 08:20:16;;;;;;;3.67;2.35;;;16.50;99.90;;;;;;6185186;23;20029;-71
2021/10/20 08:22:42;;;;;;;2.80;2.60;;;16.50;99.90;;;;;;6185252;23;20056;-73
2021/10/20 08:25:10;;;;;;;3.17;2.83;;;16.50;99.90;;;;;;6184588;23;20025;-72
2021/10/20 08:27:37;;;;;;;2.55;2.25;;;16.30;99.90;;;;;;6185191;23;20080;-73
2021/10/20 08:30:06;;;;;;;3.30;2.67;;;16.20;99.90;;;;;;6184799;23;20471;-72
2021/10/20 08:32:35;;;;;;;4.10;2.60;;;16.20;99.90;;;;;;6184749;23;20439;-75
2021/10/20 08:35:01;;;;;;;3.75;2.40;;;16.10;99.90;;;;;;6184603;23;20021;-72
2021/10/20 08:37:28;;;;;;;4.30;2.92;;;16.20;99.90;;;;;;6185008;23;20021;-72
2021/10/20 08:39:54;;;;;;;4.38;2.47;;;16.50;99.90;;;;;;6185008;23;20076;-71
2021/10/20 08:42:21;;;;;;;2.95;2.13;;;16.80;99.90;;;;;;6185096;23;20072;-72
2021/10/20 08:44:48;;;;;;;4.75;2.58;;;16.90;99.90;;;;;;6184301;23;20124;-71
2021/10/20 08:47:16;;;;;;;2.67;2.38;;;17.10;99.90;;;;;;6185468;23;20021;-75
2021/10/20 08:49:44;;;;;;;4.18;2.78;;;17.10;99.90;;;;;;6185608;23;20021;-76
2021/10/20 08:52:11;;;;;;;4.03;2.08;;;16.70;99.90;;;;;;6186100;23;20072;-71
2021/10/20 08:54:38;;;;;;;4.38;2.40;;;16.30;99.90;;;;;;6184565;23;20017;-72
2021/10/20 08:57:05;;;;;;;3.33;2.50;;;16.10;99.90;;;;;;6185013;23;20022;-74
2021/10/20 08:59:35;;;;;;;2.40;2.00;;;16.20;99.90;;;;;;6185173;23;20021;-70
2021/10/20 09:02:04;;;;;;;2.75;1.90;;;16.30;99.90;;;;;;6184876;23;20566;-74
2021/10/20 09:04:31;;;;;;;3.55;2.72;;;16.30;99.90;;;;;;6184079;23;20483;-76
2021/10/20 09:07:01;;;;;;;2.22;2.03;;;16.30;99.90;;;;;;6184714;23;20336;-73
2021/10/20 09:09:32;;;;;;;4.00;2.42;;;16.20;99.90;;;;;;6184619;23;20025;-73
2021/10/20 09:11:59;;;;;;;2.55;2.25;;;16.20;99.90;;;;;;6184788;23;20341;-72
2021/10/20 09:14:25;;;;;;;2.08;1.88;;;16.20;99.90;;;;;;6184297;23;20021;-74
2021/10/20 09:16:52;;;;;;;3.53;2.58;;;16.20;99.90;;;;;;6184321;23;20072;-74
2021/10/20 09:19:22;;;;;;;2.08;1.95;;;16.20;99.90;;;;;;6184596;23;20119;-74
2021/10/20 09:21:54;;;;;;;5.00;2.60;;;16.20;99.90;;;;;;6184596;23;20021;-75
2021/10/20 09:24:22;;;;;;;3.20;2.25;;;16.10;99.90;;;;;;6183637;23;20466;-74
2021/10/20 09:26:52;;;;;;;3.28;2.30;;;16.00;99.90;;;;;;6184622;23;20084;-74
2021/10/20 09:29:20;;;;;;;4.60;1.88;;;16.10;99.90;;;;;;6184677;23;20128;-73
2021/10/20 09:31:48;;;;;;;2.60;2.03;;;16.20;99.90;;;;;;6184809;23;20079;-72
2021/10/20 09:34:14;;;;;;;2.88;2.22;;;16.20;99.90;;;;;;6183927;23;20025;-76
2021/10/20 09:36:41;;;;;;;2.00;1.80;;;16.20;99.90;;;;;;6184221;23;20017;-74
2021/10/20 09:39:10;;;;;;;3.13;2.40;;;16.00;99.90;;;;;;6184547;23;20080;-75
2021/10/20 09:41:38;;;;;;;2.90;2.42;;;15.90;99.90;;;;;;6184452;23;20021;-75
2021/10/20 09:44:09;;;;;;;3.67;2.63;;;15.80;99.90;;;;;;6183462;23;20478;-76
2021/10/20 09:46:38;;;;;;;2.55;2.15;;;15.40;99.90;;;;;;6184243;23;20467;-75
2021/10/20 09:49:15;;;;;;;4.05;3.17;;;15.10;99.90;;;;;;6184292;23;20032;-74
2021/10/20 09:51:42;;;;;;;2.90;2.35;;;14.90;99.90;;;;;;6184326;23;20021;-73
2021/10/20 09:54:44;;;;;;;3.38;2.80;;;14.60;99.90;;;;;;6183383;23;20474;-73
2021/10/20 09:57:15;;;;;;;2.95;2.42;;;14.50;99.90;;;;;;6166715;23;20021;-74
2021/10/20 09:59:42;;;;;;;5.85;2.90;;;14.40;99.90;;;;;;6184268;23;20021;-73
2021/10/20 10:02:09;;;;;;;4.45;2.67;;;14.40;99.90;;;;;;6184389;23;20107;-74
2021/10/20 10:04:37;;;;;;;4.93;3.08;;;14.40;99.90;;;;;;6183596;23;20025;-72
2021/10/20 10:07:04;;;;;;;3.38;2.80;;;14.30;99.90;;;;;;6184583;23;20100;-71
2021/10/20 10:09:31;;;;;;;3.30;2.78;;;14.30;99.90;;;;;;6183619;23;20546;-71
2021/10/20 10:12:01;;;;;;;4.22;2.80;;;14.30;99.90;;;;;;6184597;23;20076;-72
2021/10/20 10:14:32;;;;;;;4.60;3.03;;;14.30;99.90;;;;;;6183638;23;20022;-72
2021/10/20 10:17:00;;;;;;;4.38;3.17;;;14.20;99.90;;;;;;6184131;23;20021;-70
2021/10/20 10:19:28;;;;;;;12.50;5.50;;;14.20;99.90;;;;;;6184339;23;20063;-71
2021/10/20 10:21:55;;;;;;;4.00;2.60;;;14.10;99.90;;;;;;6183748;23;20459;-70
2021/10/20 10:24:21;;;;;;;3.88;2.72;;;13.90;99.90;;;;;;6183604;23;20021;-69
2021/10/20 10:27:00;;;;;;;4.03;3.72;;;13.90;99.90;;;;;;6184245;23;20025;-69
2021/10/20 10:29:29;;;;;;;3.90;2.78;;;13.80;99.90;;;;;;6184064;23;20402;-69
2021/10/20 10:32:01;;;;;;;4.60;3.15;;;13.70;99.90;;;;;;6184166;23;20374;-68
2021/10/20 10:34:30;;;;;;;;;;;13.60;99.90;;;;;;6183974;23;20059;-69
2021/10/20 10:36:59;;;;;;;4.85;3.03;;;13.60;99.90;;;;;;6183889;23;19970;-68
2021/10/20 10:39:27;;;;;;;4.00;3.10;;;13.50;99.90;;;;;;6183634;23;20482;-69
2021/10/20 10:41:59;;;;;;;5.90;4.35;;;13.50;99.90;;;;;;6183707;23;20460;-72
2021/10/20 10:44:27;;;;;;;4.00;3.22;;;13.40;99.90;;;;;;6183441;23;20076;-71
2021/10/20 10:47:16;;;;;;;6.13;3.85;;;13.50;99.90;;;;;;6184032;23;20096;-71
2021/10/20 10:49:45;;;;;;;3.70;3.33;;;13.50;99.90;;;;;;6183882;23;20325;-71
2021/10/20 10:52:19;;;;;;;3.88;3.42;;;13.60;99.90;;;;;;6183899;23;20024;-71
2021/10/20 10:54:55;;;;;;;3.53;2.67;;;13.70;99.90;;;;;;6183400;23;20021;-69
2021/10/20 10:57:22;;;;;;;3.33;3.03;;;13.80;99.90;;;;;;6184046;23;20028;-70
2021/10/20 10:59:53;;;;;;;7.00;4.22;;;14.00;99.90;;;;;;6183916;23;20017;-70
2021/10/20 11:02:46;;;;;;;4.55;4.15;;;14.20;99.90;;;;;;6184677;23;20021;-69
2021/10/20 11:05:14;;;;;;;3.88;3.20;;;14.40;99.90;;;;;;6185538;23;20085;-69
2021/10/20 11:07:45;;;;;;;4.20;3.20;;;14.60;99.90;;;;;;6186094;23;20096;-75
2021/10/20 11:10:13;;;;;;;4.90;3.08;;;15.00;99.90;;;;;;6186065;23;20494;-71
2021/10/20 11:12:39;;;;;;;4.00;3.42;;;15.20;99.90;;;;;;6185706;23;20451;-72
2021/10/20 11:15:07;;;;;;;3.10;2.80;;;15.30;99.90;;;;;;6185341;23;20371;-70
2021/10/20 11:17:33;;;;;;;5.78;3.38;;;15.30;99.90;;;;;;6185783;23;20021;-70
2021/10/20 11:20:07;;;;;;;6.68;2.60;;;15.20;99.90;;;;;;6185752;23;20387;-69
2021/10/20 11:22:34;;;;;;;3.88;2.92;;;15.20;99.90;;;;;;6186234;23;20021;-70
2021/10/20 11:25:02;;;;;;;5.32;3.00;;;15.10;99.90;;;;;;6184963;23;20080;-75
2021/10/20 11:27:29;;;;;;;4.43;3.10;;;15.10;99.90;;;;;;6188744;23;20051;-76
2021/10/20 11:29:56;;;;;;;3.28;3.00;;;15.10;99.90;;;;;;6187473;23;20024;-75
2021/10/20 11:32:24;;;;;;;3.85;3.55;;;15.00;99.90;;;;;;6186412;23;20021;-72
2021/10/20 11:34:52;;;;;;;4.57;3.20;;;14.90;99.90;;;;;;6185417;23;20021;-71
2021/10/20 11:37:23;;;;;;;3.20;2.83;;;14.80;99.90;;;;;;6186097;23;20044;-72
2021/10/20 11:39:55;;;;;;;3.92;3.05;;;14.70;99.90;;;;;;6186242;23;20093;-71
2021/10/20 11:42:23;;;;;;;4.18;3.08;;;14.70;99.90;;;;;;6185545;23;20529;-72
2021/10/20 11:44:50;;;;;;;4.93;2.85;;;14.70;99.90;;;;;;6185469;23;20052;-72
2021/10/20 11:47:18;;;;;;;4.63;3.20;;;14.70;99.90;;;;;;6185680;23;20459;-72
2021/10/20 11:49:46;;;;;;;5.85;3.22;;;14.70;99.90;;;;;;6185895;23;20066;-72
2021/10/20 11:52:14;;;;;;;4.00;3.70;;;14.80;99.90;;;;;;6186079;23;20467;-74
2021/10/20 11:54:43;;;;;;;5.13;3.25;;;14.90;99.90;;;;;;6185089;23;20021;-74
2021/10/20 11:57:12;;;;;;;3.58;3.28;;;15.10;99.90;;;;;;6185340;23;20076;-72
2021/10/20 11:59:39;;;;;;;3.92;2.80;;;15.20;99.90;;;;;;6185552;23;20024;-73
2021/10/20 12:02:06;;;;;;;4.32;3.55;;;15.30;99.90;;;;;;6185436;23;20098;-73
2021/10/20 12:04:33;;;;;;;3.50;3.03;;;15.40;99.90;;;;;;6184600;23;20021;-70
2021/10/20 12:07:02;;;;;;;2.75;2.53;;;15.50;99.90;;;;;;6185405;23;20032;-70
2021/10/20 12:09:30;;;;;;;5.63;2.63;;;15.50;99.90;;;;;;6184971;23;20021;-69
2021/10/20 12:11:59;;;;;;;3.10;2.50;;;15.50;99.90;;;;;;6185396;23;20021;-72
2021/10/20 12:14:33;;;;;;;2.55;2.30;;;15.70;99.90;;;;;;6184434;23;20394;-71
2021/10/20 12:17:00;;;;;;;3.40;3.08;;;15.90;99.90;;;;;;6185554;23;20021;-74
2021/10/20 12:19:30;;;;;;;6.05;3.08;;;16.00;99.90;;;;;;6185450;23;20028;-74
2021/10/20 12:22:03;;;;;;;2.97;2.60;;;16.20;99.90;;;;;;6186046;23;20077;-70
2021/10/20 12:24:34;;;;;;;4.32;2.55;;;16.30;99.90;;;;;;6185008;23;20017;-71
2021/10/20 12:27:04;;;;;;;5.75;3.63;;;16.40;99.90;;;;;;6185258;23;20017;-71
2021/10/20 12:29:37;;;;;;;5.55;2.88;;;16.40;99.90;;;;;;6185143;23;20067;-71
2021/10/20 12:32:06;;;;;;;3.90;3.03;;;16.40;99.90;;;;;;6184888;23;20527;-72
2021/10/20 12:34:33;;;;;;;2.85;2.25;;;16.40;99.90;;;;;;6184687;23;20076;-72
2021/10/20 12:37:00;;;;;;;4.25;2.70;;;16.50;99.90;;;;;;6185044;23;20329;-73
2021/10/20 12:39:27;;;;;;;4.13;2.65;;;16.70;99.90;;;;;;6185014;23;20017;-73
2021/10/20 12:41:56;;;;;;;4.25;2.30;;;16.90;99.90;;;;;;6185399;23;20033;-73
2021/10/20 12:44:25;;;;;;;4.50;2.50;;;17.10;99.90;;;;;;6184464;23;20017;-73
2021/10/20 12:46:53;;;;;;;4.85;2.67;;;17.30;99.90;;;;;;6184890;23;20025;-73
2021/10/20 12:49:20;;;;;;;5.97;3.00;;;17.80;99.90;;;;;;6185010;23;20021;-71